Time;durP1;ratioP1;P1;durP2;ratioP2;P2;SDS_P1;SDS_P2;PMS_P1;PMS_P2;Temp;Humidity;BMP_temperature;BMP_pressure;BME280_temperature;BME280_humidity;BME280_pressure;Samples;Min_cycle;Max_cycle;Signal;HPM_P1;HPM_P2
2021/12/17 00:01:39;;;;;;;7.25;4.35;;;8.90;99.90;;;;;;5036089;28;20014;-81
2021/12/17 00:04:24;;;;;;;6.93;4.40;;;9.00;99.90;;;;;;5035985;28;20077;-82
2021/12/17 00:06:49;;;;;;;5.65;4.00;;;9.00;99.90;;;;;;5034348;28;20022;-85
2021/12/17 00:09:15;;;;;;;6.32;3.45;;;9.00;99.90;;;;;;5035364;28;20385;-81
2021/12/17 00:11:41;;;;;;;9.40;3.72;;;8.90;99.90;;;;;;5036113;28;20115;-77
2021/12/17 00:14:07;;;;;;;4.63;3.08;;;9.00;99.90;;;;;;5036164;28;20033;-80
2021/12/17 00:16:37;;;;;;;6.00;3.50;;;9.00;99.90;;;;;;5036304;28;20025;-81
2021/12/17 00:19:19;;;;;;;4.38;3.33;;;8.90;99.90;;;;;;5036191;28;20037;-86
2021/12/17 00:49:02;;;;;;;2.80;2.60;;;9.00;99.90;;;;;;5029537;28;20032;-77
2021/12/17 00:54:23;;;;;;;5.25;3.25;;;8.90;99.90;;;;;;5014738;28;20478;-82
2021/12/17 00:56:54;;;;;;;4.90;3.00;;;8.90;99.90;;;;;;5030139;28;20036;-80
2021/12/17 00:59:20;;;;;;;5.47;3.27;;;8.90;99.90;;;;;;5035051;28;20052;-81
2021/12/17 01:01:48;;;;;;;6.20;3.65;;;8.80;99.90;;;;;;5034954;28;20148;-76
2021/12/17 01:04:14;;;;;;;6.70;3.70;;;8.80;99.90;;;;;;5035616;28;20053;-81
2021/12/17 01:06:40;;;;;;;6.63;3.83;;;8.80;99.90;;;;;;5034649;28;20053;-87
2021/12/17 01:09:09;;;;;;;7.25;4.38;;;8.80;99.90;;;;;;5035461;28;20061;-80
2021/12/17 01:11:35;;;;;;;8.43;4.15;;;8.70;99.90;;;;;;5033718;28;20363;-83
2021/12/17 01:14:29;;;;;;;11.23;5.68;;;8.70;99.90;;;;;;5035135;28;20033;-76
2021/12/17 01:16:56;;;;;;;10.93;6.20;;;8.70;99.90;;;;;;5034119;28;20036;-75
2021/12/17 01:24:51;;;;;;;3.83;2.72;;;8.70;99.90;;;;;;5035084;28;20032;-83
2021/12/17 01:35:30;;;;;;;6.30;2.72;;;8.80;99.90;;;;;;5034194;28;20049;-78
2021/12/17 01:43:43;;;;;;;11.77;3.88;;;8.70;99.90;;;;;;5034525;28;20064;-79
2021/12/17 01:46:11;;;;;;;3.95;3.13;;;8.70;99.90;;;;;;5034303;28;20032;-79
2021/12/17 02:00:06;;;;;;;5.13;3.75;;;8.60;99.90;;;;;;5004033;28;20042;-78
2021/12/17 02:02:40;;;;;;;6.20;3.78;;;8.50;99.90;;;;;;5013809;28;20029;-77
2021/12/17 02:05:06;;;;;;;5.50;3.53;;;8.50;99.90;;;;;;5013802;28;20050;-80
2021/12/17 02:07:32;;;;;;;5.05;3.58;;;8.40;99.90;;;;;;5013959;28;20021;-81
2021/12/17 02:29:55;;;;;;;4.07;3.08;;;8.10;99.90;;;;;;5033838;28;20053;-82
2021/12/17 02:32:23;;;;;;;8.18;3.05;;;8.20;99.90;;;;;;5033476;28;20029;-84
2021/12/17 02:37:19;;;;;;;3.38;2.78;;;8.30;99.90;;;;;;5033423;28;20064;-80
2021/12/17 02:48:00;;;;;;;6.13;2.30;;;8.50;99.90;;;;;;5033564;28;20079;-78
2021/12/17 02:50:26;;;;;;;3.65;2.47;;;8.50;99.90;;;;;;5031422;28;20025;-78
2021/12/17 02:52:55;;;;;;;2.92;2.20;;;8.60;99.90;;;;;;5033040;28;20036;-79
2021/12/17 02:55:21;;;;;;;2.55;1.95;;;8.60;99.90;;;;;;5030982;28;20102;-77
2021/12/17 02:57:48;;;;;;;4.13;2.55;;;8.60;99.90;;;;;;5032572;28;20389;-80
2021/12/17 03:00:15;;;;;;;3.72;2.33;;;8.70;99.90;;;;;;5032791;28;20065;-76
2021/12/17 03:02:41;;;;;;;2.45;2.10;;;8.70;99.90;;;;;;5032955;28;20462;-80
2021/12/17 03:05:09;;;;;;;2.80;2.40;;;8.70;99.90;;;;;;5032728;28;20046;-79
2021/12/17 03:07:38;;;;;;;9.27;6.15;;;8.70;99.90;;;;;;5032978;28;20032;-82
2021/12/17 03:10:08;;;;;;;4.97;3.72;;;8.80;99.90;;;;;;5033486;28;20532;-77
2021/12/17 03:15:27;;;;;;;3.58;2.30;;;8.80;99.90;;;;;;5033573;28;20029;-87
2021/12/17 03:26:05;;;;;;;4.10;2.63;;;8.80;99.90;;;;;;5030810;28;20562;-80
2021/12/17 03:28:32;;;;;;;3.65;2.42;;;8.70;99.90;;;;;;5032686;28;20029;-81
2021/12/17 03:30:58;;;;;;;4.32;3.47;;;8.70;99.90;;;;;;5035161;28;20037;-82
2021/12/17 03:33:24;;;;;;;3.88;2.92;;;8.70;99.90;;;;;;5036693;28;20033;-79
2021/12/17 03:35:50;;;;;;;4.00;2.80;;;8.70;99.90;;;;;;5037098;28;20025;-82
2021/12/17 03:38:17;;;;;;;3.55;3.00;;;8.70;99.90;;;;;;5038276;28;20040;-81
2021/12/17 03:40:44;;;;;;;2.97;2.55;;;8.70;99.90;;;;;;5029016;28;20379;-85
2021/12/17 03:43:20;;;;;;;5.47;3.35;;;8.60;99.90;;;;;;5016866;28;20026;-83
2021/12/17 03:45:47;;;;;;;5.60;3.78;;;8.50;99.90;;;;;;5016990;28;20159;-77
2021/12/17 03:48:12;;;;;;;6.57;3.97;;;8.40;99.90;;;;;;5016787;28;20022;-83
2021/12/17 03:50:38;;;;;;;6.07;3.63;;;8.40;99.90;;;;;;5017004;28;20387;-81
2021/12/17 03:53:06;;;;;;;5.25;3.63;;;8.30;99.90;;;;;;5016737;28;20096;-79
2021/12/17 03:55:32;;;;;;;5.20;2.85;;;8.20;99.90;;;;;;5016966;28;20542;-84
2021/12/17 03:57:59;;;;;;;3.65;2.65;;;8.20;99.90;;;;;;5015969;28;20425;-80
2021/12/17 04:00:25;;;;;;;4.22;2.50;;;8.20;99.90;;;;;;5016685;28;20109;-81
2021/12/17 04:02:51;;;;;;;4.55;2.50;;;8.20;99.90;;;;;;5015173;28;20479;-77
2021/12/17 04:05:17;;;;;;;3.53;2.38;;;8.20;99.90;;;;;;5032339;28;20052;-82
2021/12/17 04:07:42;;;;;;;3.45;2.65;;;8.20;99.90;;;;;;5035712;28;20051;-80
2021/12/17 04:10:09;;;;;;;5.55;3.10;;;8.20;99.90;;;;;;5035730;28;20021;-82
2021/12/17 04:13:00;;;;;;;6.82;3.92;;;8.20;99.90;;;;;;5035558;28;20091;-81
2021/12/17 04:15:30;;;;;;;6.22;4.05;;;8.20;99.90;;;;;;5035723;28;20045;-77
2021/12/17 04:17:58;;;;;;;5.05;3.78;;;8.10;99.90;;;;;;5034796;28;20363;-76
2021/12/17 04:20:23;;;;;;;11.70;6.70;;;8.00;99.90;;;;;;5036293;28;20022;-83
2021/12/17 04:22:50;;;;;;;6.38;4.85;;;7.90;99.90;;;;;;5035801;28;20389;-78
2021/12/17 04:25:16;;;;;;;11.98;4.75;;;7.90;99.90;;;;;;5027719;28;20033;-79
2021/12/17 04:27:41;;;;;;;9.70;5.30;;;7.90;99.90;;;;;;5015367;28;20096;-79
2021/12/17 04:30:08;;;;;;;6.00;3.85;;;7.80;99.90;;;;;;5015701;28;20026;-77
2021/12/17 04:32:33;;;;;;;5.65;4.28;;;7.80;99.90;;;;;;5015734;28;20029;-76
2021/12/17 04:34:59;;;;;;;6.50;3.60;;;7.70;99.90;;;;;;5015387;28;20038;-82
2021/12/17 04:37:25;;;;;;;8.07;3.85;;;7.70;99.90;;;;;;5015266;28;20057;-76
2021/12/17 04:39:51;;;;;;;5.05;3.80;;;7.70;99.90;;;;;;5015240;28;20026;-79
2021/12/17 04:42:37;;;;;;;5.38;3.63;;;7.70;99.90;;;;;;5013866;28;20021;-82
2021/12/17 04:45:03;;;;;;;3.35;2.80;;;7.70;99.90;;;;;;5015373;28;20030;-85
2021/12/17 04:58:26;;;;;;;2.70;1.90;;;7.80;99.90;;;;;;5035343;28;20513;-79
2021/12/17 05:00:52;;;;;;;5.22;2.78;;;7.90;99.90;;;;;;5034869;28;20044;-77
2021/12/17 05:03:18;;;;;;;2.75;2.35;;;8.00;99.90;;;;;;5034462;28;20025;-81
2021/12/17 05:05:43;;;;;;;4.40;2.72;;;8.00;99.90;;;;;;5034588;28;20034;-78
2021/12/17 05:08:14;;;;;;;11.00;3.00;;;8.10;99.90;;;;;;5034752;28;20448;-77
2021/12/17 05:11:22;;;;;;;7.50;2.60;;;8.10;99.90;;;;;;5034752;28;20391;-85
2021/12/17 05:21:26;;;;;;;6.13;2.78;;;8.10;99.90;;;;;;5034487;28;20030;-85
2021/12/17 05:23:52;;;;;;;3.58;2.30;;;8.10;99.90;;;;;;5023297;28;20046;-80
2021/12/17 05:26:20;;;;;;;4.50;2.25;;;8.10;99.90;;;;;;5015022;28;20470;-77
2021/12/17 05:28:47;;;;;;;4.40;2.67;;;8.10;99.90;;;;;;5031808;28;20116;-80
2021/12/17 05:31:16;;;;;;;13.50;3.22;;;8.10;99.90;;;;;;5034414;28;20021;-83
2021/12/17 05:33:41;;;;;;;5.22;3.22;;;8.00;99.90;;;;;;5034160;28;20030;-81
2021/12/17 05:36:07;;;;;;;8.80;3.72;;;7.90;99.90;;;;;;5034315;28;20390;-85
2021/12/17 05:38:33;;;;;;;9.10;4.10;;;7.90;99.90;;;;;;5033993;28;20397;-85
2021/12/17 05:40:59;;;;;;;6.45;3.75;;;7.80;99.90;;;;;;5034514;28;20060;-82
2021/12/17 05:43:25;;;;;;;9.27;3.55;;;7.80;99.90;;;;;;5034397;28;20018;-81
2021/12/17 05:48:20;;;;;;;9.38;4.38;;;7.60;99.90;;;;;;5034079;28;20469;-83
2021/12/17 05:50:47;;;;;;;7.57;3.78;;;7.60;99.90;;;;;;5034068;28;20112;-81
2021/12/17 05:53:13;;;;;;;9.13;3.33;;;7.50;99.90;;;;;;5032997;28;20084;-84
2021/12/17 05:55:39;;;;;;;7.13;3.55;;;7.50;99.90;;;;;;5033847;28;20033;-79
2021/12/17 05:58:06;;;;;;;7.75;3.40;;;7.50;99.90;;;;;;5034493;28;20083;-79
2021/12/17 06:00:32;;;;;;;9.00;3.58;;;7.50;99.90;;;;;;5036228;28;20405;-79
2021/12/17 06:03:00;;;;;;;11.70;3.28;;;7.60;99.90;;;;;;5017726;28;20045;-77
2021/12/17 06:05:27;;;;;;;5.93;3.40;;;7.60;99.90;;;;;;5013926;28;20046;-82
2021/12/17 06:07:53;;;;;;;4.45;3.10;;;7.60;99.90;;;;;;5013853;28;20025;-83
2021/12/17 06:10:19;;;;;;;3.97;2.90;;;7.60;99.90;;;;;;5014539;28;20082;-83
2021/12/17 06:12:45;;;;;;;5.75;3.60;;;7.70;99.90;;;;;;5017962;28;20056;-78
2021/12/17 06:15:13;;;;;;;6.68;4.00;;;7.70;99.90;;;;;;5033638;28;20065;-85
2021/12/17 06:17:39;;;;;;;4.55;3.28;;;7.80;99.90;;;;;;5033677;28;20430;-80
2021/12/17 06:20:06;;;;;;;7.53;2.50;;;7.90;99.90;;;;;;5033517;28;20030;-83
2021/12/17 06:22:32;;;;;;;15.85;7.50;;;7.90;99.90;;;;;;5033617;28;20025;-80
2021/12/17 06:24:58;;;;;;;13.43;7.15;;;8.00;99.90;;;;;;5017428;28;20441;-77
2021/12/17 06:27:25;;;;;;;9.57;5.72;;;8.10;99.90;;;;;;5013940;28;20026;-79
2021/12/17 06:29:51;;;;;;;7.00;5.35;;;8.10;99.90;;;;;;5023486;28;20052;-82
2021/12/17 06:32:17;;;;;;;8.13;5.60;;;8.20;99.90;;;;;;5033771;28;20031;-82
2021/12/17 06:34:43;;;;;;;16.63;3.90;;;8.20;99.90;;;;;;5033212;28;20163;-77
2021/12/17 06:37:09;;;;;;;5.72;3.60;;;8.20;99.90;;;;;;5031650;28;20049;-79
2021/12/17 06:39:35;;;;;;;9.55;4.07;;;8.20;99.90;;;;;;5033163;28;20388;-81
2021/12/17 06:42:01;;;;;;;11.52;6.07;;;8.20;99.90;;;;;;5033179;28;20036;-76
2021/12/17 06:44:27;;;;;;;7.88;5.95;;;8.20;99.90;;;;;;5032857;28;20029;-77
2021/12/17 06:49:28;;;;;;;12.07;4.65;;;8.10;99.90;;;;;;5032049;28;20432;-78
2021/12/17 07:10:46;;;;;;;12.32;4.00;;;8.00;99.90;;;;;;5033070;28;20028;-75
2021/12/17 07:40:09;;;;;;;10.23;5.18;;;10.80;99.90;;;;;;5032349;28;20133;-77
2021/12/17 07:42:36;;;;;;;20.52;6.15;;;11.00;99.90;;;;;;5030664;28;20478;-78
2021/12/17 07:45:03;;;;;;;11.75;5.45;;;11.40;99.90;;;;;;5033024;28;20419;-81
2021/12/17 07:47:29;;;;;;;9.85;5.05;;;11.90;99.90;;;;;;5029931;28;20071;-79
2021/12/17 07:49:55;;;;;;;23.63;6.05;;;12.30;99.90;;;;;;5030536;28;20034;-77
2021/12/17 07:52:21;;;;;;;12.95;4.18;;;12.80;99.90;;;;;;5031521;28;20025;-79
2021/12/17 07:54:46;;;;;;;10.30;4.88;;;13.00;99.90;;;;;;5029867;28;20370;-78
2021/12/17 07:57:12;;;;;;;10.52;3.97;;;13.00;99.90;;;;;;5030695;28;20375;-76
2021/12/17 07:59:39;;;;;;;13.10;4.57;;;13.20;99.90;;;;;;5031762;28;21147;-77
2021/12/17 08:02:06;;;;;;;7.47;4.03;;;13.50;99.90;;;;;;5031608;28;20013;-81
2021/12/17 08:04:32;;;;;;;13.82;4.05;;;13.90;99.90;;;;;;5031379;28;20053;-78
2021/12/17 08:06:58;;;;;;;11.05;3.97;;;14.40;99.90;;;;;;5031581;28;20030;-86
2021/12/17 08:09:24;;;;;;;14.35;4.00;;;14.60;99.90;;;;;;5030287;28;20071;-77
2021/12/17 08:11:57;;;;;;;18.13;5.03;;;14.90;99.90;;;;;;5032456;28;20417;-77
2021/12/17 08:14:25;;;;;;;16.50;3.75;;;14.90;99.90;;;;;;5032034;28;20402;-78
2021/12/17 08:24:53;;;;;;;13.05;3.50;;;16.50;99.90;;;;;;5032899;28;20064;-79
2021/12/17 08:30:08;;;;;;;9.32;3.97;;;17.00;99.90;;;;;;5034902;28;20399;-77
2021/12/17 08:32:34;;;;;;;14.85;5.03;;;16.40;99.90;;;;;;5035109;28;20030;-78
2021/12/17 08:35:00;;;;;;;6.22;3.40;;;16.50;99.90;;;;;;5034548;28;20437;-78
2021/12/17 08:37:26;;;;;;;9.05;4.75;;;16.90;99.90;;;;;;5034292;28;20025;-79
2021/12/17 08:39:51;;;;;;;16.98;4.18;;;17.10;99.90;;;;;;5034253;28;20380;-78
2021/12/17 08:42:17;;;;;;;11.70;5.28;;;17.50;99.90;;;;;;5034348;28;20100;-77
2021/12/17 08:44:43;;;;;;;6.50;3.72;;;18.10;99.90;;;;;;5034465;28;20058;-81
2021/12/17 08:47:10;;;;;;;12.70;4.93;;;18.50;99.90;;;;;;5034714;28;20030;-77
2021/12/17 08:49:39;;;;;;;6.18;4.00;;;19.10;99.90;;;;;;5032076;28;20037;-78
2021/12/17 08:52:06;;;;;;;6.80;4.38;;;19.70;99.90;;;;;;5031923;28;20049;-78
2021/12/17 08:54:32;;;;;;;17.17;4.10;;;20.40;99.90;;;;;;5034623;28;20068;-79
2021/12/17 08:56:57;;;;;;;15.82;3.13;;;21.00;99.70;;;;;;5025729;28;20056;-78
2021/12/17 08:59:23;;;;;;;7.55;2.85;;;21.50;97.70;;;;;;5029982;28;20044;-79
2021/12/17 09:01:49;;;;;;;9.15;3.00;;;21.60;97.40;;;;;;5032798;28;20022;-77
2021/12/17 09:04:15;;;;;;;6.50;2.75;;;22.10;95.90;;;;;;5033235;28;20126;-84
2021/12/17 09:06:41;;;;;;;7.40;2.90;;;21.70;95.50;;;;;;5032896;28;20049;-78
2021/12/17 09:09:07;;;;;;;6.43;2.58;;;21.00;96.10;;;;;;5034079;28;20496;-82
2021/12/17 09:11:33;;;;;;;9.13;2.72;;;19.90;96.40;;;;;;5033738;28;20044;-77
2021/12/17 09:14:02;;;;;;;9.68;2.88;;;18.90;97.40;;;;;;5032495;28;20068;-78
2021/12/17 09:16:28;;;;;;;17.00;3.90;;;18.30;98.80;;;;;;5033377;28;20030;-79
2021/12/17 09:18:55;;;;;;;15.07;3.92;;;18.00;99.20;;;;;;5033251;28;20087;-81
2021/12/17 09:21:21;;;;;;;9.45;3.55;;;17.50;99.90;;;;;;5033593;28;20104;-80
2021/12/17 09:23:47;;;;;;;11.10;4.05;;;17.50;99.90;;;;;;5033106;28;20096;-83
2021/12/17 09:26:14;;;;;;;10.27;3.70;;;17.60;99.90;;;;;;5033893;28;20029;-78
2021/12/17 09:28:40;;;;;;;9.57;3.25;;;17.60;99.90;;;;;;5033696;28;20028;-76
2021/12/17 09:31:11;;;;;;;11.02;3.42;;;17.50;99.80;;;;;;5032577;28;20473;-78
2021/12/17 09:33:37;;;;;;;10.63;4.38;;;17.40;99.90;;;;;;5031990;28;20026;-82
2021/12/17 09:36:04;;;;;;;12.15;4.03;;;17.00;99.90;;;;;;5033482;28;20072;-79
2021/12/17 09:38:30;;;;;;;16.70;4.55;;;17.20;99.90;;;;;;5033726;28;20045;-77
2021/12/17 09:40:56;;;;;;;18.23;4.55;;;17.40;99.90;;;;;;5030261;28;20052;-77
2021/12/17 09:43:23;;;;;;;9.98;3.72;;;17.50;99.90;;;;;;5032836;28;20017;-78
2021/12/17 09:45:48;;;;;;;14.50;5.18;;;17.70;99.90;;;;;;5032615;28;20076;-79
2021/12/17 09:48:14;;;;;;;13.30;4.70;;;17.90;99.90;;;;;;5034154;28;20017;-80
2021/12/17 09:50:40;;;;;;;8.20;4.10;;;18.10;99.90;;;;;;5034644;28;20025;-80
2021/12/17 09:53:06;;;;;;;13.02;4.72;;;18.50;99.80;;;;;;5032890;28;20072;-78
2021/12/17 09:55:32;;;;;;;17.38;5.25;;;18.70;99.80;;;;;;5031095;28;20075;-77
2021/12/17 09:57:58;;;;;;;15.57;5.13;;;19.00;99.70;;;;;;5030760;28;20036;-78
2021/12/17 10:00:27;;;;;;;13.10;4.80;;;19.30;99.60;;;;;;5032480;28;21254;-87
2021/12/17 10:02:53;;;;;;;20.50;5.82;;;19.50;99.20;;;;;;5031687;28;20021;-79
2021/12/17 10:05:25;;;;;;;15.00;5.40;;;19.70;99.40;;;;;;5025400;22;20042;-80
2021/12/17 10:08:00;;;;;;;18.42;5.40;;;19.80;99.20;;;;;;4992772;28;20018;-78
2021/12/17 10:10:38;;;;;;;12.90;4.88;;;20.10;98.70;;;;;;4992509;28;20030;-78
2021/12/17 10:13:21;;;;;;;32.20;5.13;;;20.50;98.20;;;;;;4990849;28;20029;-78
2021/12/17 10:15:56;;;;;;;15.20;4.35;;;20.20;98.20;;;;;;4992876;28;20034;-77
2021/12/17 10:18:39;;;;;;;17.00;4.47;;;19.90;97.90;;;;;;4993439;28;20386;-77
2021/12/17 10:21:26;;;;;;;17.05;4.00;;;19.80;98.20;;;;;;4993603;28;20027;-77
2021/12/17 10:23:54;;;;;;;8.57;4.13;;;19.90;98.30;;;;;;4992783;28;21299;-77
2021/12/17 10:26:21;;;;;;;18.48;3.65;;;20.00;98.00;;;;;;4988023;28;20364;-78
2021/12/17 10:28:57;;;;;;;7.78;3.38;;;20.20;97.80;;;;;;4991953;28;20045;-77
2021/12/17 10:31:25;;;;;;;8.02;3.45;;;20.50;96.60;;;;;;4993194;28;20029;-77
2021/12/17 10:33:52;;;;;;;13.73;3.20;;;20.70;96.30;;;;;;4992295;28;20031;-77
2021/12/17 10:36:18;;;;;;;10.52;2.70;;;20.80;96.30;;;;;;4992313;28;20030;-77
2021/12/17 10:38:45;;;;;;;18.73;4.00;;;20.90;96.20;;;;;;4993048;28;20021;-79
2021/12/17 10:41:14;;;;;;;10.18;3.38;;;21.10;95.60;;;;;;4993042;28;20383;-79
2021/12/17 10:43:48;;;;;;;11.85;3.40;;;21.40;95.70;;;;;;4991636;28;20559;-79
2021/12/17 10:46:26;;;;;;;12.90;3.55;;;21.30;95.10;;;;;;4991375;28;20382;-78
2021/12/17 10:49:00;;;;;;;16.90;3.53;;;21.00;95.30;;;;;;4992597;28;20084;-78
2021/12/17 10:54:06;;;;;;;16.70;3.80;;;20.20;95.60;;;;;;4992986;28;20019;-78
2021/12/17 10:56:34;;;;;;;16.45;3.42;;;19.90;96.20;;;;;;4991781;28;20479;-79
2021/12/17 10:59:04;;;;;;;20.10;4.13;;;19.50;96.60;;;;;;4991541;28;20037;-78
2021/12/17 11:01:50;;;;;;;20.33;4.05;;;18.90;97.20;;;;;;4991909;28;20109;-77
2021/12/17 11:04:20;;;;;;;23.30;3.47;;;18.60;97.30;;;;;;4992512;28;20046;-78
2021/12/17 11:06:51;;;;;;;6.72;2.95;;;18.20;97.10;;;;;;4992317;28;20029;-78
2021/12/17 11:09:38;;;;;;;8.63;2.80;;;17.80;97.30;;;;;;4992465;28;20018;-77
2021/12/17 11:12:23;;;;;;;12.07;3.42;;;17.40;97.80;;;;;;4992964;28;20410;-76
2021/12/17 11:14:50;;;;;;;14.90;3.65;;;17.10;98.60;;;;;;4992396;28;20032;-78
2021/12/17 11:17:20;;;;;;;9.98;3.50;;;16.80;98.80;;;;;;4993186;28;20026;-78
2021/12/17 11:19:48;;;;;;;11.57;3.53;;;16.60;99.10;;;;;;4992619;28;20022;-77
2021/12/17 11:22:17;;;;;;;9.68;2.90;;;16.30;99.40;;;;;;4992071;28;20018;-77
2021/12/17 11:24:43;;;;;;;13.25;3.90;;;16.10;99.40;;;;;;4988221;28;20023;-77
2021/12/17 11:27:09;;;;;;;12.80;3.22;;;15.90;99.90;;;;;;4992003;28;20022;-76
2021/12/17 11:29:35;;;;;;;13.73;3.05;;;15.90;99.90;;;;;;4990352;28;20073;-77
2021/12/17 11:32:04;;;;;;;5.38;2.80;;;16.40;99.90;;;;;;4990694;28;20035;-77
2021/12/17 11:34:32;;;;;;;9.75;3.35;;;17.00;99.90;;;;;;4989239;28;20033;-75
2021/12/17 11:37:00;;;;;;;10.68;5.90;;;17.50;99.70;;;;;;4991291;28;20014;-77
2021/12/17 11:39:30;;;;;;;9.43;5.50;;;17.90;99.60;;;;;;4990911;28;20477;-79
2021/12/17 11:42:18;;;;;;;11.77;5.95;;;18.10;99.50;;;;;;4991686;28;20324;-77
2021/12/17 11:44:53;;;;;;;16.67;6.10;;;18.30;99.60;;;;;;4991452;28;20022;-75
2021/12/17 11:47:20;;;;;;;24.55;5.13;;;18.70;98.90;;;;;;4989731;28;20027;-75
2021/12/17 11:49:49;;;;;;;8.32;5.28;;;18.80;98.70;;;;;;4990730;28;20089;-75
2021/12/17 11:52:43;;;;;;;13.68;4.57;;;18.70;98.50;;;;;;4993630;28;20018;-76
2021/12/17 11:55:20;;;;;;;8.98;4.47;;;18.60;98.30;;;;;;4985954;28;20046;-77
2021/12/17 11:57:49;;;;;;;11.02;3.90;;;18.50;99.00;;;;;;4994798;28;20072;-77
2021/12/17 12:00:17;;;;;;;6.70;3.80;;;18.50;98.70;;;;;;4991737;28;20033;-77
2021/12/17 12:02:50;;;;;;;12.90;3.83;;;18.40;98.80;;;;;;4993976;28;20019;-79
2021/12/17 12:05:38;;;;;;;16.27;5.03;;;18.30;98.30;;;;;;4995499;28;20430;-81
2021/12/17 12:08:26;;;;;;;12.13;4.60;;;18.10;99.50;;;;;;4994639;28;20034;-80
2021/12/17 12:11:10;;;;;;;9.82;4.75;;;17.90;99.40;;;;;;4995364;28;20498;-80
2021/12/17 12:13:41;;;;;;;13.85;5.00;;;17.70;99.80;;;;;;4995339;28;20031;-80
2021/12/17 12:16:10;;;;;;;11.65;4.57;;;17.50;99.90;;;;;;4995721;28;20102;-84
2021/12/17 12:18:41;;;;;;;6.82;4.50;;;17.30;99.90;;;;;;4995356;28;20394;-79
2021/12/17 12:21:07;;;;;;;8.18;4.50;;;17.10;99.90;;;;;;4995907;28;20026;-81
2021/12/17 12:23:33;;;;;;;14.10;4.75;;;16.80;99.90;;;;;;4990831;28;20042;-80
2021/12/17 12:26:04;;;;;;;9.25;4.85;;;16.60;99.90;;;;;;4975558;28;20479;-80
2021/12/17 12:28:42;;;;;;;7.22;3.38;;;16.40;99.90;;;;;;4993854;28;20023;-80
2021/12/17 12:31:08;;;;;;;6.18;2.80;;;16.20;99.90;;;;;;4994783;28;20026;-81
2021/12/17 12:33:33;;;;;;;7.30;2.15;;;16.20;99.90;;;;;;4994456;28;20033;-76
2021/12/17 12:35:59;;;;;;;2.58;2.05;;;16.00;99.90;;;;;;4992707;28;20034;-78
2021/12/17 12:38:32;;;;;;;5.18;2.28;;;15.90;99.90;;;;;;4993448;28;20117;-78
2021/12/17 12:41:01;;;;;;;3.88;2.05;;;15.80;99.90;;;;;;4990802;28;20049;-76
2021/12/17 12:43:33;;;;;;;2.72;2.00;;;15.70;99.90;;;;;;4992836;28;20023;-77
2021/12/17 12:45:59;;;;;;;4.43;1.88;;;15.60;99.90;;;;;;4994375;28;20390;-76
2021/12/17 12:48:29;;;;;;;8.13;2.20;;;15.50;99.90;;;;;;4993600;28;20038;-76
2021/12/17 12:51:16;;;;;;;3.85;2.08;;;15.40;99.90;;;;;;4992408;28;20029;-79
2021/12/17 12:54:03;;;;;;;2.65;1.95;;;15.20;99.90;;;;;;4993290;28;20015;-77
2021/12/17 12:56:29;;;;;;;3.33;2.20;;;15.20;99.90;;;;;;4991761;28;20032;-78
2021/12/17 12:58:55;;;;;;;2.92;1.95;;;15.00;99.90;;;;;;4992595;28;20022;-78
2021/12/17 13:01:21;;;;;;;3.63;2.33;;;15.00;99.90;;;;;;4993852;28;20022;-76
2021/12/17 13:03:48;;;;;;;2.70;1.92;;;15.00;99.90;;;;;;4992724;28;20553;-77
2021/12/17 13:06:19;;;;;;;5.35;2.20;;;14.90;99.90;;;;;;4990511;28;20033;-76
2021/12/17 13:08:56;;;;;;;4.90;2.55;;;14.80;99.90;;;;;;5010256;28;20037;-76
2021/12/17 13:11:23;;;;;;;3.83;2.22;;;14.70;99.90;;;;;;4998305;28;20030;-76
2021/12/17 13:13:54;;;;;;;2.42;1.85;;;14.70;99.90;;;;;;4993597;28;20067;-76
2021/12/17 13:16:43;;;;;;;8.95;2.13;;;14.60;99.90;;;;;;4994432;28;20030;-78
2021/12/17 13:22:02;;;;;;;11.05;2.00;;;14.50;99.90;;;;;;4992138;28;20097;-75
2021/12/17 13:24:32;;;;;;;2.58;1.80;;;14.40;99.90;;;;;;4974791;28;20042;-78
2021/12/17 13:26:59;;;;;;;3.67;1.80;;;14.40;99.90;;;;;;4974041;28;20396;-78
2021/12/17 13:29:31;;;;;;;7.72;2.97;;;14.40;99.90;;;;;;4988056;28;20022;-76
2021/12/17 13:32:04;;;;;;;5.82;2.40;;;14.30;99.90;;;;;;4993063;28;20026;-77
2021/12/17 13:34:46;;;;;;;9.55;2.47;;;14.30;99.90;;;;;;4994098;28;20041;-76
2021/12/17 13:37:19;;;;;;;2.95;2.03;;;14.20;99.90;;;;;;4993222;28;20026;-77
2021/12/17 13:39:55;;;;;;;13.18;2.58;;;14.20;99.90;;;;;;4992116;28;20652;-76
2021/12/17 13:42:22;;;;;;;5.28;2.38;;;14.10;99.90;;;;;;4992762;28;20472;-77
2021/12/17 13:44:50;;;;;;;12.43;3.30;;;14.10;99.90;;;;;;4991736;28;20037;-77
2021/12/17 13:47:30;;;;;;;10.45;3.08;;;14.00;99.90;;;;;;4991554;28;20033;-77
2021/12/17 13:50:22;;;;;;;23.20;3.83;;;14.00;99.90;;;;;;4990858;28;20399;-75
2021/12/17 13:52:54;;;;;;;;;;;13.90;99.90;;;;;;4990976;28;20560;-76
2021/12/17 13:55:25;;;;;;;9.68;3.03;;;13.80;99.90;;;;;;4993755;28;19953;-76
2021/12/17 13:57:52;;;;;;;5.82;3.10;;;13.80;99.90;;;;;;4992565;28;20022;-77
2021/12/17 14:00:30;;;;;;;7.57;4.07;;;13.70;99.90;;;;;;4993171;28;20101;-76
2021/12/17 14:02:57;;;;;;;5.32;3.42;;;13.70;99.90;;;;;;4993599;28;20101;-76
2021/12/17 14:05:27;;;;;;;6.35;3.65;;;13.60;99.90;;;;;;4993426;28;20308;-75
2021/12/17 14:07:58;;;;;;;10.13;3.97;;;13.60;99.90;;;;;;4993706;28;20027;-75
2021/12/17 14:10:29;;;;;;;11.57;4.22;;;13.60;99.90;;;;;;4993281;28;20022;-75
2021/12/17 14:12:55;;;;;;;14.45;4.45;;;13.60;99.90;;;;;;4993005;28;20430;-75
2021/12/17 14:15:27;;;;;;;23.88;4.43;;;13.60;99.90;;;;;;4991535;28;20101;-76
2021/12/17 14:17:54;;;;;;;;;;;13.60;99.90;;;;;;4992247;28;20190;-76
2021/12/17 14:20:23;;;;;;;8.20;5.30;;;13.60;99.90;;;;;;4993050;28;19996;-76
2021/12/17 14:22:59;;;;;;;9.82;4.38;;;13.50;99.90;;;;;;4992987;28;20026;-75
2021/12/17 14:25:41;;;;;;;8.85;4.63;;;13.50;99.90;;;;;;4993260;28;20027;-76
2021/12/17 14:28:09;;;;;;;15.17;4.23;;;13.40;99.90;;;;;;4993357;28;20052;-74
2021/12/17 14:30:36;;;;;;;8.23;4.25;;;13.40;99.90;;;;;;4993099;28;20023;-76
2021/12/17 14:33:18;;;;;;;12.52;4.25;;;13.40;99.90;;;;;;4992453;28;20029;-76
2021/12/17 14:35:59;;;;;;;9.15;4.38;;;13.30;99.90;;;;;;4991382;28;20035;-76
2021/12/17 14:38:37;;;;;;;7.80;4.57;;;13.30;99.90;;;;;;4992524;28;20020;-76
2021/12/17 14:41:06;;;;;;;7.47;4.45;;;13.30;99.90;;;;;;4992383;28;20018;-76
2021/12/17 14:43:49;;;;;;;15.63;4.40;;;13.20;99.90;;;;;;4989916;28;20038;-76
2021/12/17 14:49:06;;;;;;;12.02;4.70;;;13.10;99.90;;;;;;4991241;28;20031;-76
2021/12/17 15:05:26;;;;;;;17.23;4.60;;;12.70;99.90;;;;;;4990949;28;20056;-75
2021/12/17 15:07:53;;;;;;;8.85;4.32;;;12.70;99.90;;;;;;4991497;28;20029;-76
2021/12/17 15:10:23;;;;;;;24.15;5.78;;;12.60;99.90;;;;;;4989920;28;20031;-78
2021/12/17 15:12:56;;;;;;;9.45;5.13;;;12.60;99.90;;;;;;4991624;28;20007;-75
2021/12/17 15:15:24;;;;;;;11.98;4.93;;;12.50;99.90;;;;;;4991881;28;20398;-78
2021/12/17 15:17:51;;;;;;;10.48;4.75;;;12.40;99.90;;;;;;4992623;28;20030;-77
2021/12/17 15:20:26;;;;;;;11.60;4.60;;;12.30;99.90;;;;;;4992707;28;20105;-77
2021/12/17 15:22:54;;;;;;;9.43;4.43;;;12.20;99.90;;;;;;4992388;28;20053;-77
2021/12/17 15:25:20;;;;;;;10.32;4.82;;;12.20;99.90;;;;;;4992466;28;20030;-77
2021/12/17 15:27:47;;;;;;;11.15;5.00;;;12.10;99.90;;;;;;4995712;28;20101;-77
2021/12/17 15:30:17;;;;;;;6.72;4.68;;;12.00;99.90;;;;;;4995121;28;20033;-77
2021/12/17 15:32:43;;;;;;;7.88;5.32;;;12.00;99.90;;;;;;4995621;28;20110;-76
2021/12/17 15:35:15;;;;;;;16.50;6.15;;;11.90;99.90;;;;;;4993869;28;20084;-78
2021/12/17 15:37:41;;;;;;;15.25;10.63;;;11.90;99.90;;;;;;4995937;28;20050;-77
2021/12/17 15:40:08;;;;;;;20.48;11.35;;;11.80;99.90;;;;;;4995643;28;20144;-76
2021/12/17 15:42:34;;;;;;;27.70;18.50;;;11.80;99.90;;;;;;4994783;28;20030;-78
2021/12/17 15:45:00;;;;;;;32.63;21.35;;;11.70;99.90;;;;;;4993585;28;20034;-79
2021/12/17 15:47:25;;;;;;;32.33;22.75;;;11.60;99.90;;;;;;4994505;28;20026;-77
2021/12/17 15:49:51;;;;;;;33.35;17.85;;;11.60;99.90;;;;;;4995145;28;20037;-78
2021/12/17 15:52:17;;;;;;;34.35;22.83;;;11.50;99.90;;;;;;4995853;28;20519;-81
2021/12/17 15:54:43;;;;;;;36.22;20.52;;;11.40;99.90;;;;;;4994375;28;20045;-78
2021/12/17 15:57:10;;;;;;;17.95;10.10;;;11.40;99.90;;;;;;4993989;28;20470;-79
2021/12/17 15:59:36;;;;;;;12.63;7.88;;;11.30;99.90;;;;;;4993038;28;20037;-79
2021/12/17 16:02:03;;;;;;;14.27;6.55;;;11.30;99.90;;;;;;4994951;28;20022;-79
2021/12/17 16:04:33;;;;;;;23.05;11.40;;;11.20;99.90;;;;;;4994659;28;20049;-82
2021/12/17 16:07:00;;;;;;;32.50;13.40;;;11.10;99.90;;;;;;4994557;28;20541;-81
2021/12/17 16:23:10;;;;;;;31.63;16.05;;;10.70;99.90;;;;;;4986028;28;20041;-79
2021/12/17 16:25:35;;;;;;;38.28;18.65;;;10.70;99.90;;;;;;4988546;28;20105;-78
2021/12/17 16:28:01;;;;;;;42.50;19.40;;;10.60;99.90;;;;;;4989623;28;20037;-79
2021/12/17 16:30:27;;;;;;;36.88;20.90;;;10.50;99.90;;;;;;4993779;28;20034;-80
2021/12/17 16:32:53;;;;;;;46.75;20.75;;;10.50;99.90;;;;;;4995051;28;20113;-82
2021/12/17 16:35:18;;;;;;;48.47;21.20;;;10.40;99.90;;;;;;4995022;28;20482;-80